createdAt,value
2022-09-13T00:01:58.353Z,3.60
2022-09-13T00:04:24.940Z,2.97
2022-09-13T00:06:51.445Z,3.17
2022-09-13T00:09:18.072Z,2.95
2022-09-13T00:11:44.675Z,2.63
2022-09-13T00:14:11.148Z,2.88
2022-09-13T00:16:37.770Z,2.80
2022-09-13T00:19:04.281Z,2.88
2022-09-13T00:21:30.982Z,3.28
2022-09-13T00:23:57.456Z,3.15
2022-09-13T00:26:28.359Z,2.55
2022-09-13T00:28:58.308Z,2.78
2022-09-13T00:31:27.607Z,2.53
2022-09-13T00:33:54.715Z,3.08
2022-09-13T00:36:21.241Z,3.17
2022-09-13T00:38:47.715Z,3.22
2022-09-13T00:41:16.811Z,3.20
2022-09-13T00:43:45.186Z,2.80
2022-09-13T00:46:33.375Z,2.83
2022-09-13T00:49:30.198Z,3.00
2022-09-13T00:52:00.218Z,3.00
2022-09-13T00:54:32.073Z,2.83
2022-09-13T00:57:02.025Z,2.58
2022-09-13T00:59:34.535Z,2.50
2022-09-13T01:02:02.137Z,2.90
2022-09-13T01:04:32.778Z,2.83
2022-09-13T01:07:02.611Z,2.30
2022-09-13T01:09:31.543Z,3.00
2022-09-13T01:12:10.161Z,2.42
2022-09-13T01:14:37.410Z,2.42
2022-09-13T01:17:04.794Z,3.28
2022-09-13T01:19:31.864Z,3.47
2022-09-13T01:22:17.098Z,3.58
2022-09-13T01:24:49.597Z,3.45
2022-09-13T01:27:42.166Z,3.25
2022-09-13T01:30:37.810Z,3.35
2022-09-13T01:33:22.718Z,3.22
2022-09-13T01:36:11.712Z,3.50
2022-09-13T01:39:04.489Z,3.13
2022-09-13T01:42:00.290Z,3.28
2022-09-13T01:44:47.547Z,3.40
2022-09-13T01:47:42.402Z,3.22
2022-09-13T01:50:36.812Z,3.13
2022-09-13T01:53:14.300Z,3.22
2022-09-13T01:55:40.721Z,3.00
2022-09-13T01:58:28.170Z,3.67
2022-09-13T02:01:09.805Z,3.50
2022-09-13T02:03:44.711Z,4.05
2022-09-13T02:06:24.572Z,3.92
2022-09-13T02:08:57.784Z,3.53
2022-09-13T02:11:24.679Z,4.38
2022-09-13T02:14:30.867Z,4.50
2022-09-13T02:17:07.353Z,3.45
2022-09-13T02:19:39.993Z,3.03
2022-09-13T02:22:09.570Z,3.40
2022-09-13T02:24:40.932Z,3.97
2022-09-13T02:27:12.113Z,2.47
2022-09-13T02:29:42.391Z,2.55
2022-09-13T02:32:34.042Z,3.67
2022-09-13T02:35:12.673Z,3.13
2022-09-13T02:37:42.680Z,3.25
2022-09-13T02:40:15.457Z,3.55
2022-09-13T02:43:06.452Z,3.33
2022-09-13T02:45:52.187Z,3.33
2022-09-13T02:48:31.521Z,2.78
2022-09-13T02:51:18.275Z,3.58
2022-09-13T02:53:59.393Z,4.22
2022-09-13T02:56:48.081Z,3.55
2022-09-13T02:59:19.313Z,3.25
2022-09-13T03:01:55.112Z,2.88
2022-09-13T03:04:21.631Z,2.72
2022-09-13T03:06:49.697Z,3.28
2022-09-13T03:09:17.204Z,2.75
2022-09-13T03:12:23.326Z,2.70
2022-09-13T03:15:34.788Z,3.08
2022-09-13T03:18:23.570Z,2.78
2022-09-13T03:21:16.105Z,2.95
2022-09-13T03:23:45.659Z,4.18
2022-09-13T03:26:53.654Z,3.05
2022-09-13T03:29:48.812Z,3.15
2022-09-13T03:32:39.871Z,3.47
2022-09-13T03:35:27.596Z,3.05
2022-09-13T03:38:03.907Z,3.38
2022-09-13T03:40:33.328Z,3.75
2022-09-13T03:43:27.113Z,3.45
2022-09-13T03:45:59.019Z,3.22
2022-09-13T03:48:27.521Z,3.17
2022-09-13T03:50:55.639Z,3.80
2022-09-13T03:53:27.360Z,3.20
2022-09-13T03:55:54.797Z,3.25
2022-09-13T03:58:22.062Z,3.50
2022-09-13T04:00:48.840Z,3.25
2022-09-13T04:03:15.717Z,3.55
2022-09-13T04:05:42.265Z,3.00
2022-09-13T04:08:08.780Z,3.60
2022-09-13T04:10:36.336Z,3.42
2022-09-13T04:13:03.116Z,3.75
2022-09-13T04:15:31.323Z,3.30
2022-09-13T04:17:57.854Z,3.45
2022-09-13T04:20:25.206Z,3.00
2022-09-13T04:22:56.148Z,3.80
2022-09-13T04:25:23.346Z,3.20
2022-09-13T04:27:55.487Z,3.55
2022-09-13T04:30:23.452Z,3.28
2022-09-13T04:32:50.282Z,3.05
2022-09-13T04:35:18.086Z,3.30
2022-09-13T04:37:44.594Z,2.88
2022-09-13T04:40:11.665Z,2.70
2022-09-13T04:42:38.218Z,3.63
2022-09-13T04:45:05.500Z,3.85
2022-09-13T04:47:32.113Z,4.35
2022-09-13T04:49:58.599Z,3.25
2022-09-13T04:52:25.080Z,3.53
2022-09-13T04:54:51.887Z,4.50
2022-09-13T04:57:18.380Z,3.97
2022-09-13T04:59:44.842Z,3.17
2022-09-13T05:02:11.413Z,4.18
2022-09-13T05:04:38.440Z,3.92
2022-09-13T05:07:05.143Z,4.88
2022-09-13T05:09:32.306Z,3.63
2022-09-13T05:11:58.791Z,3.75
2022-09-13T05:14:25.248Z,4.25
2022-09-13T05:16:51.773Z,3.95
2022-09-13T05:19:18.283Z,4.05
2022-09-13T05:21:44.821Z,4.10
2022-09-13T05:24:11.934Z,4.70
2022-09-13T05:26:38.623Z,3.50
2022-09-13T05:29:05.291Z,4.00
2022-09-13T05:31:35.543Z,3.42
2022-09-13T05:34:06.646Z,3.67
2022-09-13T05:36:33.845Z,4.32
2022-09-13T05:41:47.591Z,3.72
2022-09-13T05:44:14.460Z,3.55
2022-09-13T05:46:42.393Z,3.80
2022-09-13T05:49:08.920Z,4.05
2022-09-13T05:51:36.568Z,4.20
2022-09-13T05:54:03.073Z,4.28
2022-09-13T05:56:30.231Z,4.43
2022-09-13T05:58:56.994Z,4.03
2022-09-13T06:01:26.457Z,3.65
2022-09-13T06:03:55.350Z,4.15
2022-09-13T06:06:23.333Z,4.43
2022-09-13T06:08:54.752Z,3.92
2022-09-13T06:11:21.842Z,4.32
2022-09-13T06:13:48.896Z,5.22
2022-09-13T06:16:16.755Z,4.35
2022-09-13T06:18:43.967Z,4.47
2022-09-13T06:21:18.090Z,5.45
2022-09-13T06:23:51.094Z,4.32
2022-09-13T06:26:19.567Z,4.60
2022-09-13T06:28:54.254Z,4.32
2022-09-13T06:31:22.852Z,4.22
2022-09-13T06:33:49.504Z,4.47
2022-09-13T06:36:18.291Z,3.80
2022-09-13T06:38:46.572Z,3.70
2022-09-13T06:41:16.071Z,4.03
2022-09-13T06:43:42.532Z,4.18
2022-09-13T06:46:21.520Z,4.97
2022-09-13T06:48:50.976Z,3.75
2022-09-13T06:51:19.722Z,4.57
2022-09-13T06:53:48.510Z,5.03
2022-09-13T06:56:21.186Z,4.75
2022-09-13T06:58:49.599Z,4.13
2022-09-13T07:01:20.035Z,4.93
2022-09-13T07:03:52.092Z,5.40
2022-09-13T07:06:22.649Z,4.78
2022-09-13T07:08:51.289Z,4.55
2022-09-13T07:11:19.541Z,5.13
2022-09-13T07:13:50.444Z,5.55
2022-09-13T07:16:18.051Z,5.03
2022-09-13T07:18:44.615Z,4.82
2022-09-13T07:21:11.634Z,5.00
2022-09-13T07:23:39.943Z,4.60
2022-09-13T07:26:07.625Z,4.57
2022-09-13T07:28:45.381Z,4.85
2022-09-13T07:31:16.901Z,4.95
2022-09-13T07:33:44.679Z,5.20
2022-09-13T07:36:12.540Z,5.15
2022-09-13T07:38:45.323Z,6.07
2022-09-13T07:41:15.268Z,5.20
2022-09-13T07:43:42.109Z,5.82
2022-09-13T07:46:11.361Z,5.88
2022-09-13T07:51:09.434Z,5.72
2022-09-13T07:53:37.486Z,5.70
2022-09-13T07:56:06.553Z,5.57
2022-09-13T07:58:34.893Z,5.57
2022-09-13T08:01:05.626Z,5.20
2022-09-13T08:03:33.762Z,5.32
2022-09-13T08:06:01.509Z,5.50
2022-09-13T08:08:29.124Z,4.78
2022-09-13T08:10:55.816Z,5.65
2022-09-13T08:13:22.278Z,4.93
2022-09-13T08:15:49.957Z,4.63
2022-09-13T08:18:19.926Z,5.00
2022-09-13T08:20:46.404Z,4.88
2022-09-13T08:23:13.668Z,4.70
2022-09-13T08:25:40.913Z,4.63
2022-09-13T08:28:10.820Z,4.60
2022-09-13T08:30:38.087Z,4.65
2022-09-13T08:33:05.040Z,4.65
2022-09-13T08:35:32.448Z,4.88
2022-09-13T08:38:00.025Z,5.18
2022-09-13T08:40:30.700Z,4.55
2022-09-13T08:43:06.040Z,4.75
2022-09-13T08:45:32.750Z,4.20
2022-09-13T08:48:04.594Z,5.07
2022-09-13T08:50:34.177Z,4.47
2022-09-13T08:53:17.674Z,4.43
2022-09-13T08:56:17.807Z,4.07
2022-09-13T08:59:00.454Z,7.05
2022-09-13T09:01:38.424Z,4.40
2022-09-13T09:04:26.167Z,4.50
2022-09-13T09:07:05.211Z,3.92
2022-09-13T09:19:35.367Z,3.72
2022-09-13T09:24:38.820Z,3.22
2022-09-13T09:35:27.441Z,3.17
2022-09-13T09:38:33.008Z,3.70
2022-09-13T09:41:05.650Z,3.58
2022-09-13T09:44:14.141Z,3.35
2022-09-13T09:46:43.061Z,2.42
2022-09-13T09:49:39.921Z,2.80
2022-09-13T09:52:11.297Z,3.08
2022-09-13T09:54:39.160Z,2.88
2022-09-13T09:57:08.149Z,4.03
2022-09-13T09:59:36.166Z,2.92
2022-09-13T10:02:18.471Z,2.85
2022-09-13T10:04:56.512Z,2.60
2022-09-13T10:07:32.843Z,2.53
2022-09-13T10:10:20.509Z,3.00
2022-09-13T10:12:52.345Z,2.78
2022-09-13T10:15:22.352Z,2.63
2022-09-13T10:18:42.918Z,2.60
2022-09-13T10:21:06.332Z,2.10
2022-09-13T10:23:35.258Z,3.00
2022-09-13T10:26:02.751Z,2.97
2022-09-13T10:28:32.447Z,3.00
2022-09-13T10:31:05.064Z,2.63
2022-09-13T10:33:38.731Z,2.40
2022-09-13T10:36:15.520Z,2.60
2022-09-13T10:38:57.249Z,2.80
2022-09-13T10:41:27.197Z,2.70
2022-09-13T10:43:58.785Z,3.00
2022-09-13T10:46:27.830Z,2.90
2022-09-13T10:48:57.259Z,2.40
2022-09-13T10:51:34.373Z,2.67
2022-09-13T10:54:23.298Z,2.72
2022-09-13T10:56:51.150Z,2.72
2022-09-13T10:59:22.960Z,2.95
2022-09-13T11:02:14.079Z,2.45
2022-09-13T11:05:07.666Z,2.38
2022-09-13T11:07:47.357Z,2.30
2022-09-13T11:10:16.537Z,2.83
2022-09-13T11:15:51.612Z,2.55
2022-09-13T11:18:36.898Z,2.70
2022-09-13T11:21:09.455Z,4.57
2022-09-13T11:24:04.182Z,2.28
2022-09-13T11:26:38.857Z,2.35
2022-09-13T11:29:21.079Z,2.00
2022-09-13T11:31:56.891Z,2.13
2022-09-13T11:34:36.432Z,2.20
2022-09-13T11:37:16.503Z,1.90
2022-09-13T11:39:57.918Z,1.80
2022-09-13T11:42:55.820Z,2.40
2022-09-13T11:45:24.726Z,3.30
2022-09-13T11:48:21.616Z,1.85
2022-09-13T11:51:19.917Z,1.42
2022-09-13T11:53:59.875Z,1.85
2022-09-13T11:56:40.323Z,1.88
2022-09-13T11:59:22.023Z,2.20
2022-09-13T12:01:56.022Z,1.75
2022-09-13T12:04:33.075Z,1.88
2022-09-13T12:07:05.161Z,2.20
2022-09-13T12:09:38.434Z,2.10
2022-09-13T12:12:11.780Z,2.50
2022-09-13T12:15:04.981Z,2.10
2022-09-13T12:17:42.797Z,2.28
2022-09-13T12:20:32.905Z,2.28
2022-09-13T12:23:03.475Z,2.58
2022-09-13T12:25:45.425Z,2.30
2022-09-13T12:28:19.842Z,2.10
2022-09-13T12:30:54.348Z,2.40
2022-09-13T12:33:21.225Z,2.30
2022-09-13T12:36:17.052Z,2.03
2022-09-13T12:39:09.068Z,1.90
2022-09-13T12:41:42.918Z,1.80
2022-09-13T12:44:46.618Z,1.50
2022-09-13T12:47:20.568Z,1.88
2022-09-13T12:53:18.470Z,2.05
2022-09-13T12:56:17.189Z,2.10
2022-09-13T12:59:20.713Z,2.20
2022-09-13T13:01:50.318Z,2.10
2022-09-13T13:04:30.631Z,1.63
2022-09-13T13:06:58.278Z,1.67
2022-09-13T13:09:48.405Z,1.30
2022-09-13T13:12:36.715Z,1.55
2022-09-13T13:15:28.056Z,1.77
2022-09-13T13:17:57.927Z,1.70
2022-09-13T13:20:48.231Z,1.95
2022-09-13T13:23:18.872Z,1.60
2022-09-13T13:26:08.004Z,1.83
2022-09-13T13:28:47.693Z,1.50
2022-09-13T13:31:35.559Z,1.98
2022-09-13T13:34:13.905Z,1.63
2022-09-13T13:36:40.346Z,1.65
2022-09-13T13:39:13.650Z,1.33
2022-09-13T13:41:47.142Z,1.58
2022-09-13T13:44:19.721Z,1.67
2022-09-13T13:46:51.081Z,1.75
2022-09-13T13:49:32.604Z,1.75
2022-09-13T13:52:15.797Z,1.73
2022-09-13T13:54:42.251Z,3.03
2022-09-13T13:57:20.890Z,1.90
2022-09-13T13:59:50.338Z,1.88
2022-09-13T14:02:23.142Z,1.75
2022-09-13T14:05:04.960Z,1.70
2022-09-13T14:08:03.474Z,1.70
2022-09-13T14:10:39.763Z,1.90
2022-09-13T14:13:22.916Z,1.95
2022-09-13T14:16:09.873Z,1.90
2022-09-13T14:18:59.433Z,1.70
2022-09-13T14:21:28.189Z,1.33
2022-09-13T14:24:24.603Z,2.03
2022-09-13T14:26:58.579Z,3.50
2022-09-13T14:29:26.394Z,4.20
2022-09-13T14:31:55.603Z,3.13
2022-09-13T14:34:30.691Z,8.05
2022-09-13T14:37:00.842Z,6.45
2022-09-13T14:39:28.217Z,21.38
2022-09-13T14:42:15.375Z,16.15
2022-09-13T14:44:45.662Z,3.33
2022-09-13T14:47:21.078Z,2.20
2022-09-13T14:49:52.234Z,5.65
2022-09-13T14:52:29.289Z,3.00
2022-09-13T14:55:06.942Z,2.03
2022-09-13T14:57:38.649Z,2.35
2022-09-13T15:00:25.879Z,3.25
2022-09-13T15:03:05.170Z,2.22
2022-09-13T15:05:34.410Z,2.10
2022-09-13T15:08:00.904Z,2.05
2022-09-13T15:10:33.077Z,1.63
2022-09-13T15:13:05.632Z,1.98
2022-09-13T15:15:32.055Z,2.33
2022-09-13T15:18:00.879Z,2.08
2022-09-13T15:20:31.340Z,2.58
2022-09-13T15:22:58.354Z,2.10
2022-09-13T15:25:29.664Z,2.30
2022-09-13T15:27:57.528Z,2.05
2022-09-13T15:30:38.202Z,2.20
2022-09-13T15:33:10.853Z,3.35
2022-09-13T15:35:42.613Z,2.00
2022-09-13T15:38:24.218Z,1.90
2022-09-13T15:41:25.049Z,1.80
2022-09-13T15:43:51.514Z,4.15
2022-09-13T15:46:18.517Z,2.60
2022-09-13T15:48:52.570Z,1.80
2022-09-13T15:51:19.145Z,1.88
2022-09-13T15:53:46.775Z,1.80
2022-09-13T15:56:17.053Z,1.70
2022-09-13T15:58:43.590Z,1.80
2022-09-13T16:01:12.807Z,1.60
2022-09-13T16:03:39.765Z,1.70
2022-09-13T16:06:08.934Z,1.60
2022-09-13T16:08:37.138Z,1.83
2022-09-13T16:11:03.640Z,1.73
2022-09-13T16:13:30.130Z,2.28
2022-09-13T16:15:58.079Z,1.92
2022-09-13T16:18:25.093Z,2.45
2022-09-13T16:20:51.791Z,2.15
2022-09-13T16:23:18.264Z,2.03
2022-09-13T16:25:44.940Z,2.53
2022-09-13T16:28:21.362Z,2.30
2022-09-13T16:30:48.748Z,2.40
2022-09-13T16:33:15.237Z,2.20
2022-09-13T16:35:41.844Z,2.78
2022-09-13T16:38:10.296Z,2.88
2022-09-13T16:40:40.215Z,2.65
2022-09-13T16:43:07.256Z,2.22
2022-09-13T16:45:34.601Z,2.47
2022-09-13T16:48:01.172Z,2.30
2022-09-13T16:50:28.771Z,2.40
2022-09-13T16:52:57.661Z,1.95
2022-09-13T16:55:25.900Z,2.03
2022-09-13T16:57:52.618Z,2.47
2022-09-13T17:00:20.122Z,2.33
2022-09-13T17:02:47.425Z,2.10
2022-09-13T17:05:14.047Z,2.38
2022-09-13T17:07:40.624Z,2.30
2022-09-13T17:10:08.467Z,2.53
2022-09-13T17:12:35.078Z,7.15
2022-09-13T17:15:01.716Z,5.20
2022-09-13T17:17:28.318Z,6.70
2022-09-13T17:19:54.848Z,4.50
2022-09-13T17:22:21.390Z,3.67
2022-09-13T17:24:47.880Z,2.92
2022-09-13T17:27:14.352Z,2.90
2022-09-13T17:29:40.880Z,2.47
2022-09-13T17:32:07.384Z,2.28
2022-09-13T17:34:34.701Z,2.92
2022-09-13T17:37:03.669Z,2.67
2022-09-13T17:39:31.032Z,2.28
2022-09-13T17:41:58.476Z,3.35
2022-09-13T17:44:25.569Z,6.28
2022-09-13T17:46:52.152Z,12.77
2022-09-13T17:49:20.317Z,11.55
2022-09-13T17:51:46.898Z,6.03
2022-09-13T17:54:13.599Z,3.67
2022-09-13T17:56:42.788Z,4.25
2022-09-13T18:01:56.463Z,3.28
2022-09-13T18:04:23.663Z,4.68
2022-09-13T18:06:53.740Z,4.32
2022-09-13T18:09:21.130Z,4.97
2022-09-13T18:11:47.818Z,4.15
2022-09-13T18:14:15.978Z,3.95
2022-09-13T18:16:43.924Z,3.03
2022-09-13T18:19:11.638Z,3.03
2022-09-13T18:21:38.159Z,3.67
2022-09-13T18:24:05.410Z,4.25
2022-09-13T18:26:32.695Z,3.90
2022-09-13T18:29:04.272Z,4.35
2022-09-13T18:31:32.634Z,11.90
2022-09-13T18:34:01.711Z,5.93
2022-09-13T18:36:29.796Z,3.40
2022-09-13T18:38:57.274Z,6.00
2022-09-13T18:41:27.006Z,10.95
2022-09-13T18:43:56.106Z,12.68
2022-09-13T18:48:57.232Z,7.88
2022-09-13T18:51:32.965Z,9.80
2022-09-13T18:54:00.332Z,7.00
2022-09-13T18:56:27.792Z,5.60
2022-09-13T18:58:55.227Z,5.30
2022-09-13T19:01:28.071Z,4.10
2022-09-13T19:03:56.186Z,3.83
2022-09-13T19:06:27.682Z,3.30
2022-09-13T19:08:56.503Z,3.58
2022-09-13T19:11:45.378Z,3.22
2022-09-13T19:14:14.239Z,4.80
2022-09-13T19:16:41.038Z,3.75
2022-09-13T19:19:07.767Z,3.25
2022-09-13T19:21:34.343Z,3.67
2022-09-13T19:24:04.183Z,3.70
2022-09-13T19:26:36.120Z,3.95
2022-09-13T19:29:14.349Z,3.60
2022-09-13T19:31:44.217Z,3.50
2022-09-13T19:34:12.270Z,5.10
2022-09-13T19:36:40.237Z,3.67
2022-09-13T19:39:07.615Z,3.42
2022-09-13T19:41:35.463Z,3.10
2022-09-13T19:44:02.943Z,3.80
2022-09-13T19:46:32.542Z,4.75
2022-09-13T19:49:01.046Z,5.28
2022-09-13T19:51:32.794Z,5.37
2022-09-13T19:54:00.544Z,4.80
2022-09-13T19:56:34.015Z,3.97
2022-09-13T19:59:02.023Z,4.30
2022-09-13T20:01:31.713Z,3.75
2022-09-13T20:04:03.189Z,3.70
2022-09-13T20:06:35.235Z,4.65
2022-09-13T20:09:04.173Z,3.90
2022-09-13T20:11:50.056Z,3.38
2022-09-13T20:14:19.390Z,3.90
2022-09-13T20:16:46.742Z,3.80
2022-09-13T20:19:39.794Z,4.25
2022-09-13T20:22:05.847Z,3.60
2022-09-13T20:24:32.422Z,4.05
2022-09-13T20:26:58.913Z,4.15
2022-09-13T20:29:25.640Z,4.07
2022-09-13T20:31:52.155Z,3.97
2022-09-13T20:34:18.697Z,3.67
2022-09-13T20:36:47.108Z,4.10
2022-09-13T20:39:15.145Z,3.28
2022-09-13T20:41:43.190Z,3.05
2022-09-13T20:44:09.796Z,3.33
2022-09-13T20:46:37.643Z,3.65
2022-09-13T20:49:05.412Z,4.07
2022-09-13T20:51:34.702Z,3.40
2022-09-13T20:54:01.755Z,7.18
2022-09-13T20:56:30.402Z,4.30
2022-09-13T20:59:00.157Z,3.88
2022-09-13T21:01:29.673Z,4.15
2022-09-13T21:03:57.015Z,4.07
2022-09-13T21:06:27.575Z,3.97
2022-09-13T21:08:56.380Z,3.10
2022-09-13T21:11:27.056Z,3.08
2022-09-13T21:13:55.844Z,3.85
2022-09-13T21:16:26.140Z,3.42
2022-09-13T21:18:53.905Z,4.28
2022-09-13T21:21:25.643Z,3.60
2022-09-13T21:23:52.936Z,4.15
2022-09-13T21:26:21.785Z,3.90
2022-09-13T21:28:49.056Z,4.72
2022-09-13T21:31:34.731Z,3.35
2022-09-13T21:34:04.306Z,3.78
2022-09-13T21:36:34.747Z,3.88
2022-09-13T21:39:02.420Z,3.65
2022-09-13T21:41:29.988Z,4.07
2022-09-13T21:43:56.886Z,3.80
2022-09-13T21:46:28.604Z,3.83
2022-09-13T21:49:01.310Z,4.35
2022-09-13T21:51:36.991Z,5.78
2022-09-13T21:54:07.133Z,5.90
2022-09-13T21:56:38.991Z,5.75
2022-09-13T21:59:13.201Z,4.90
2022-09-13T22:01:41.653Z,4.90
2022-09-13T22:04:13.124Z,4.65
2022-09-13T22:06:39.600Z,5.32
2022-09-13T22:09:08.156Z,5.53
2022-09-13T22:11:38.707Z,4.65
2022-09-13T22:14:06.716Z,4.47
2022-09-13T22:16:36.280Z,4.85
2022-09-13T22:19:09.527Z,4.85
2022-09-13T22:21:38.701Z,4.35
2022-09-13T22:24:07.985Z,4.80
2022-09-13T22:26:37.834Z,4.80
2022-09-13T22:29:05.243Z,4.85
2022-09-13T22:31:37.547Z,4.60
2022-09-13T22:34:05.077Z,5.03
2022-09-13T22:36:31.613Z,4.75
2022-09-13T22:38:58.753Z,4.90
2022-09-13T22:41:27.568Z,4.43
2022-09-13T22:43:54.640Z,5.40
2022-09-13T22:46:29.941Z,4.60
2022-09-13T22:48:57.047Z,5.30
2022-09-13T22:51:24.225Z,4.85
2022-09-13T22:53:52.376Z,4.20
2022-09-13T22:56:25.650Z,3.90
2022-09-13T22:59:08.038Z,4.53
2022-09-13T23:01:35.605Z,5.10
2022-09-13T23:04:03.051Z,4.82
2022-09-13T23:06:31.041Z,4.10
2022-09-13T23:09:00.512Z,4.53
2022-09-13T23:11:28.481Z,3.80
2022-09-13T23:13:58.323Z,4.07
2022-09-13T23:16:30.159Z,4.65
2022-09-13T23:18:57.474Z,4.47
2022-09-13T23:21:27.140Z,3.80
2022-09-13T23:23:54.281Z,3.78
2022-09-13T23:26:22.815Z,3.70
2022-09-13T23:28:56.565Z,4.47
2022-09-13T23:31:27.242Z,4.50
2022-09-13T23:33:56.952Z,3.92
2022-09-13T23:36:26.896Z,3.60
2022-09-13T23:38:55.381Z,4.43
2022-09-13T23:41:22.617Z,4.50
2022-09-13T23:43:49.571Z,4.50
2022-09-13T23:46:16.180Z,4.63
2022-09-13T23:48:45.540Z,3.75
2022-09-13T23:51:16.780Z,4.35
2022-09-13T23:53:43.912Z,4.30
2022-09-13T23:56:11.745Z,3.95
2022-09-13T23:58:38.852Z,3.95
